createdAt,value
2023-01-11T00:01:51.312Z,99293.25
2023-01-11T00:04:53.584Z,99294.72
2023-01-11T00:07:56.088Z,99286.84
2023-01-11T00:10:58.368Z,99282.03
2023-01-11T00:14:00.616Z,99285.13
2023-01-11T00:17:02.790Z,99281.97
2023-01-11T00:20:05.623Z,99283.28
2023-01-11T00:23:08.174Z,99287.75
2023-01-11T00:26:13.089Z,99279.53
2023-01-11T00:29:15.311Z,99280.69
2023-01-11T00:32:17.458Z,99282.16
2023-01-11T00:35:19.656Z,99279.81
2023-01-11T00:38:41.410Z,99288.69
2023-01-11T00:42:02.272Z,99286.59
2023-01-11T00:45:23.696Z,99294.50
2023-01-11T00:48:25.877Z,99288.44
2023-01-11T00:51:28.040Z,99294.50
2023-01-11T00:54:30.213Z,99295.59
2023-01-11T00:57:32.450Z,99296.56
2023-01-11T01:00:34.768Z,99315.44
2023-01-11T01:03:36.990Z,99309.84
2023-01-11T01:06:39.223Z,99313.03
2023-01-11T01:09:41.430Z,99328.50
2023-01-11T01:13:02.405Z,99330.22
2023-01-11T01:16:05.048Z,99334.31
2023-01-11T01:19:07.378Z,99339.97
2023-01-11T01:22:09.611Z,99347.53
2023-01-11T01:25:11.771Z,99346.31
2023-01-11T01:28:13.936Z,99348.91
2023-01-11T01:31:16.817Z,99348.31
2023-01-11T01:34:19.016Z,99347.00
2023-01-11T01:37:21.278Z,99358.72
2023-01-11T01:40:23.469Z,99344.87
2023-01-11T01:43:47.337Z,99348.28
2023-01-11T01:46:49.935Z,99340.84
2023-01-11T01:49:52.114Z,99339.25
2023-01-11T01:52:57.744Z,99348.75
2023-01-11T01:56:01.767Z,99346.72
2023-01-11T01:59:12.798Z,99349.84
2023-01-11T02:02:15.150Z,99349.44
2023-01-11T02:05:17.587Z,99344.06
2023-01-11T02:08:37.228Z,99347.88
2023-01-11T02:11:43.440Z,99359.88
2023-01-11T02:14:47.343Z,99368.13
2023-01-11T02:17:50.293Z,99378.84
2023-01-11T02:21:12.584Z,99377.34
2023-01-11T02:24:45.911Z,99367.75
2023-01-11T02:27:53.853Z,99360.87
2023-01-11T02:31:08.391Z,99355.09
2023-01-11T02:34:11.000Z,99358.38
2023-01-11T02:37:33.614Z,99358.94
2023-01-11T02:40:51.113Z,99362.53
2023-01-11T02:44:19.304Z,99365.00
2023-01-11T02:47:29.289Z,99371.16
2023-01-11T02:50:40.971Z,99371.88
2023-01-11T02:53:53.900Z,99373.09
2023-01-11T02:56:58.870Z,99370.59
2023-01-11T03:00:01.654Z,99374.97
2023-01-11T03:03:14.741Z,99372.91
2023-01-11T03:06:27.126Z,99374.47
2023-01-11T03:09:41.927Z,99381.47
2023-01-11T03:13:01.868Z,99387.12
2023-01-11T03:16:13.914Z,99391.56
2023-01-11T03:19:59.489Z,99389.75
2023-01-11T03:23:14.807Z,99406.37
2023-01-11T03:26:35.639Z,99408.72
2023-01-11T03:30:02.635Z,99409.69
2023-01-11T03:33:18.333Z,99407.37
2023-01-11T03:36:46.647Z,99401.56
2023-01-11T03:40:03.947Z,99402.28
2023-01-11T03:43:12.415Z,99404.47
2023-01-11T03:46:22.043Z,99400.78
2023-01-11T03:49:29.242Z,99399.69
2023-01-11T03:52:36.661Z,99390.44
2023-01-11T03:55:41.023Z,99377.06
2023-01-11T03:58:44.039Z,99376.97
2023-01-11T04:01:46.195Z,99381.78
2023-01-11T04:04:48.461Z,99390.06
2023-01-11T04:07:50.761Z,99368.16
2023-01-11T04:10:52.927Z,99372.84
2023-01-11T04:13:55.117Z,99379.12
2023-01-11T04:16:57.886Z,99383.44
2023-01-11T04:20:00.152Z,99384.53
2023-01-11T04:23:03.247Z,99387.69
2023-01-11T04:26:05.462Z,99387.94
2023-01-11T04:29:07.670Z,99379.84
2023-01-11T04:32:09.906Z,99389.88
2023-01-11T04:35:12.200Z,99394.28
2023-01-11T04:38:14.462Z,99410.81
2023-01-11T04:41:35.082Z,99434.16
2023-01-11T04:44:37.276Z,99445.84
2023-01-11T04:47:39.427Z,99437.47
2023-01-11T04:50:41.629Z,99434.44
2023-01-11T04:53:43.851Z,99443.44
2023-01-11T04:56:46.041Z,99432.53
2023-01-11T04:59:48.809Z,99424.19
2023-01-11T05:02:51.047Z,99428.13
2023-01-11T05:06:00.856Z,99446.19
2023-01-11T05:09:03.197Z,99441.50
2023-01-11T05:12:05.479Z,99445.91
2023-01-11T05:15:08.432Z,99441.59
2023-01-11T05:18:10.616Z,99443.34
2023-01-11T05:21:14.753Z,99449.78
2023-01-11T05:24:17.314Z,99445.56
2023-01-11T05:27:19.467Z,99435.53
2023-01-11T05:30:21.625Z,99433.47
2023-01-11T05:33:23.808Z,99418.19
2023-01-11T05:36:27.405Z,99420.69
2023-01-11T05:39:29.611Z,99424.59
2023-01-11T05:42:31.778Z,99428.00
2023-01-11T05:45:34.068Z,99425.00
2023-01-11T05:48:36.236Z,99415.78
2023-01-11T05:51:38.463Z,99413.63
2023-01-11T05:54:40.660Z,99410.78
2023-01-11T05:57:46.815Z,99419.31
2023-01-11T06:00:50.095Z,99410.38
2023-01-11T06:03:52.517Z,99400.38
2023-01-11T06:06:54.814Z,99397.47
2023-01-11T06:09:57.172Z,99399.53
2023-01-11T06:13:18.080Z,99428.16
2023-01-11T06:16:21.191Z,99421.13
2023-01-11T06:19:23.452Z,99415.47
2023-01-11T06:22:25.989Z,99403.72
2023-01-11T06:25:30.303Z,99406.56
2023-01-11T06:28:32.508Z,99423.69
2023-01-11T06:31:34.708Z,99419.31
2023-01-11T06:34:36.928Z,99420.81
2023-01-11T06:37:39.099Z,99428.25
2023-01-11T06:40:42.103Z,99427.47
2023-01-11T06:43:44.336Z,99416.88
2023-01-11T06:46:46.505Z,99415.78
2023-01-11T06:49:48.707Z,99426.22
2023-01-11T06:52:58.745Z,99439.72
2023-01-11T06:56:00.922Z,99435.59
2023-01-11T06:59:03.472Z,99447.59
2023-01-11T07:02:06.247Z,99455.22
2023-01-11T07:05:09.028Z,99473.69
2023-01-11T07:08:11.356Z,99489.53
2023-01-11T07:11:13.563Z,99496.13
2023-01-11T07:14:19.957Z,99496.91
2023-01-11T07:17:22.140Z,99498.13
2023-01-11T07:20:25.463Z,99499.63
2023-01-11T07:23:27.681Z,99501.03
2023-01-11T07:26:31.302Z,99503.94
2023-01-11T07:29:33.521Z,99499.56
2023-01-11T07:32:36.136Z,99503.69
2023-01-11T07:35:38.436Z,99497.34
2023-01-11T07:38:40.643Z,99508.34
2023-01-11T07:42:01.469Z,99504.09
2023-01-11T07:45:04.694Z,99502.88
2023-01-11T07:48:10.064Z,99501.12
2023-01-11T07:51:13.440Z,99500.84
2023-01-11T07:54:15.648Z,99503.59
2023-01-11T07:57:17.924Z,99499.84
2023-01-11T08:00:20.580Z,99505.09
2023-01-11T08:03:22.919Z,99505.50
2023-01-11T08:06:25.152Z,99506.56
2023-01-11T08:09:27.382Z,99503.28
2023-01-11T08:12:49.479Z,99504.19
2023-01-11T08:15:53.640Z,99523.16
2023-01-11T08:18:55.888Z,99509.97
2023-01-11T08:21:58.265Z,99502.69
2023-01-11T08:25:00.442Z,99511.56
2023-01-11T08:28:04.060Z,99516.59
2023-01-11T08:31:09.644Z,99529.03
2023-01-11T08:34:11.844Z,99525.41
2023-01-11T08:37:14.548Z,99510.09
2023-01-11T08:40:16.849Z,99517.28
2023-01-11T08:43:19.151Z,99526.28
2023-01-11T08:46:21.468Z,99523.72
2023-01-11T08:49:23.812Z,99531.62
2023-01-11T08:52:26.024Z,99535.22
2023-01-11T08:55:30.725Z,99535.06
2023-01-11T08:58:33.011Z,99535.63
2023-01-11T09:01:35.247Z,99534.94
2023-01-11T09:04:37.425Z,99534.81
2023-01-11T09:07:39.708Z,99536.00
2023-01-11T09:10:41.875Z,99541.41
2023-01-11T09:13:44.126Z,99537.31
2023-01-11T09:16:46.294Z,99541.75
2023-01-11T09:19:48.529Z,99536.72
2023-01-11T09:22:53.011Z,99535.44
2023-01-11T09:25:56.000Z,99533.47
2023-01-11T09:28:58.326Z,99530.91
2023-01-11T09:32:00.589Z,99527.97
2023-01-11T09:35:04.667Z,99525.06
2023-01-11T09:38:06.862Z,99534.78
2023-01-11T09:41:21.623Z,99525.59
2023-01-11T09:44:26.779Z,99525.44
2023-01-11T09:47:41.056Z,99517.00
2023-01-11T09:50:45.706Z,99522.31
2023-01-11T09:53:54.128Z,99526.59
2023-01-11T09:57:13.131Z,99529.69
2023-01-11T10:00:28.013Z,99526.25
2023-01-11T10:04:03.443Z,99520.63
2023-01-11T10:07:28.471Z,99508.44
2023-01-11T10:18:34.389Z,99504.19
2023-01-11T10:18:38.447Z,99494.97
2023-01-11T10:21:23.473Z,99490.84
2023-01-11T10:24:42.498Z,99489.13
2023-01-11T10:27:56.706Z,99493.59
2023-01-11T10:30:58.885Z,99493.25
2023-01-11T10:34:41.420Z,99490.94
2023-01-11T10:37:54.622Z,99490.75
2023-01-11T10:41:14.382Z,99489.75
2023-01-11T10:44:41.416Z,99486.72
2023-01-11T10:47:55.929Z,99486.25
2023-01-11T10:51:06.146Z,99493.16
2023-01-11T10:54:16.648Z,99487.81
2023-01-11T10:57:22.932Z,99485.25
2023-01-11T11:00:32.658Z,99494.28
2023-01-11T11:03:49.067Z,99487.81
2023-01-11T11:07:11.637Z,99492.31
2023-01-11T11:10:22.114Z,99491.66
2023-01-11T11:13:27.172Z,99485.56
2023-01-11T11:16:33.973Z,99478.47
2023-01-11T11:19:36.184Z,99484.59
2023-01-11T11:22:38.405Z,99483.59
2023-01-11T11:25:43.367Z,99468.03
2023-01-11T11:29:07.251Z,99473.78
2023-01-11T11:32:18.961Z,99467.03
2023-01-11T11:35:40.655Z,99461.84
2023-01-11T11:38:45.104Z,99456.81
2023-01-11T11:42:11.918Z,99446.06
2023-01-11T11:45:15.830Z,99453.00
2023-01-11T11:48:18.931Z,99456.84
2023-01-11T11:51:22.978Z,99461.22
2023-01-11T11:54:36.530Z,99448.44
2023-01-11T11:57:42.566Z,99456.53
2023-01-11T12:00:48.373Z,99459.00
2023-01-11T12:03:52.389Z,99456.25
2023-01-11T12:07:17.589Z,99457.28
2023-01-11T12:10:22.358Z,99458.44
2023-01-11T12:13:30.849Z,99451.91
2023-01-11T12:16:39.617Z,99460.13
2023-01-11T12:19:45.192Z,99463.94
2023-01-11T12:22:47.964Z,99459.72
2023-01-11T12:25:53.208Z,99456.91
2023-01-11T12:29:04.575Z,99456.75
2023-01-11T12:32:26.789Z,99467.22
2023-01-11T12:36:01.313Z,99473.16
2023-01-11T12:39:29.153Z,99469.22
2023-01-11T12:43:01.204Z,99468.91
2023-01-11T12:46:09.199Z,99478.47
2023-01-11T12:49:38.806Z,99483.03
2023-01-11T12:52:52.789Z,99478.69
2023-01-11T12:56:10.074Z,99466.00
2023-01-11T12:59:18.778Z,99466.06
2023-01-11T13:02:47.588Z,99463.41
2023-01-11T13:06:14.489Z,99460.22
2023-01-11T13:09:52.757Z,99462.66
2023-01-11T13:13:05.947Z,99457.47
2023-01-11T13:16:17.849Z,99451.34
2023-01-11T13:19:40.097Z,99451.66
2023-01-11T13:22:57.527Z,99459.53
2023-01-11T13:26:09.979Z,99458.38
2023-01-11T13:29:26.909Z,99450.44
2023-01-11T13:32:37.526Z,99462.38
2023-01-11T13:35:43.460Z,99455.81
2023-01-11T13:38:51.838Z,99465.84
2023-01-11T13:41:56.886Z,99461.19
2023-01-11T13:45:10.200Z,99470.03
2023-01-11T13:48:21.483Z,99477.56
2023-01-11T13:51:31.745Z,99481.56
2023-01-11T13:54:35.842Z,99480.09
2023-01-11T13:57:48.817Z,99473.44
2023-01-11T14:01:03.358Z,99479.47
2023-01-11T14:04:13.803Z,99486.31
2023-01-11T14:08:00.651Z,99481.75
2023-01-11T14:11:05.898Z,99476.97
2023-01-11T14:14:46.109Z,99485.81
2023-01-11T14:17:54.133Z,99484.16
2023-01-11T14:21:04.413Z,99472.84
2023-01-11T14:24:07.634Z,99463.09
2023-01-11T14:27:40.280Z,99453.25
2023-01-11T14:30:55.365Z,99449.19
2023-01-11T14:34:08.605Z,99454.66
2023-01-11T14:37:19.570Z,99471.69
2023-01-11T14:40:30.787Z,99469.94
2023-01-11T14:44:08.218Z,99472.94
2023-01-11T14:47:38.639Z,99470.03
2023-01-11T14:51:01.845Z,99468.63
2023-01-11T14:54:26.781Z,99466.56
2023-01-11T14:58:00.144Z,99465.66
2023-01-11T15:01:06.268Z,99463.22
2023-01-11T15:04:20.796Z,99459.22
2023-01-11T15:07:31.572Z,99466.84
2023-01-11T15:10:34.551Z,99472.94
2023-01-11T15:13:44.395Z,99470.78
2023-01-11T15:17:10.572Z,99465.25
2023-01-11T15:20:15.645Z,99459.66
2023-01-11T15:23:18.347Z,99458.22
2023-01-11T15:26:21.606Z,99459.87
2023-01-11T15:29:29.615Z,99469.63
2023-01-11T15:32:36.468Z,99468.16
2023-01-11T15:35:39.053Z,99460.25
2023-01-11T15:38:49.481Z,99457.25
2023-01-11T15:42:06.243Z,99450.34
2023-01-11T15:45:26.474Z,99460.72
2023-01-11T15:48:51.602Z,99470.56
2023-01-11T15:51:59.868Z,99474.03
2023-01-11T15:55:11.144Z,99469.91
2023-01-11T15:58:45.752Z,99466.72
2023-01-11T16:02:18.540Z,99473.47
2023-01-11T16:05:22.860Z,99464.88
2023-01-11T16:08:29.460Z,99458.22
2023-01-11T16:11:50.529Z,99463.28
2023-01-11T16:15:11.259Z,99465.19
2023-01-11T16:18:26.552Z,99466.47
2023-01-11T16:21:34.886Z,99468.34
2023-01-11T16:24:43.298Z,99469.09
2023-01-11T16:27:52.008Z,99468.44
2023-01-11T16:31:02.529Z,99467.72
2023-01-11T16:34:07.630Z,99470.66
2023-01-11T16:37:39.396Z,99477.03
2023-01-11T16:40:41.777Z,99474.34
2023-01-11T16:44:08.397Z,99471.06
2023-01-11T16:47:17.649Z,99463.00
2023-01-11T16:50:22.443Z,99462.69
2023-01-11T16:53:26.289Z,99469.06
2023-01-11T16:56:30.703Z,99461.44
2023-01-11T16:59:34.830Z,99466.31
2023-01-11T17:02:38.780Z,99468.63
2023-01-11T17:05:40.969Z,99468.41
2023-01-11T17:08:48.173Z,99467.87
2023-01-11T17:11:50.953Z,99469.38
2023-01-11T17:14:53.592Z,99466.09
2023-01-11T17:17:55.775Z,99466.53
2023-01-11T17:20:57.973Z,99475.22
2023-01-11T17:24:02.951Z,99475.13
2023-01-11T17:27:06.661Z,99479.16
2023-01-11T17:30:13.706Z,99475.28
2023-01-11T17:33:26.589Z,99464.62
2023-01-11T17:36:29.549Z,99465.75
2023-01-11T17:39:33.523Z,99471.53
2023-01-11T17:42:54.305Z,99474.09
2023-01-11T17:45:58.273Z,99478.72
2023-01-11T17:49:01.001Z,99481.94
2023-01-11T17:52:22.319Z,99480.22
2023-01-11T17:55:25.343Z,99489.44
2023-01-11T17:58:29.236Z,99485.91
2023-01-11T18:01:31.498Z,99492.97
2023-01-11T18:04:33.749Z,99483.28
2023-01-11T18:07:42.611Z,99484.50
2023-01-11T18:10:51.289Z,99482.84
2023-01-11T18:13:55.796Z,99486.69
2023-01-11T18:17:03.936Z,99487.50
2023-01-11T18:20:15.310Z,99489.19
2023-01-11T18:23:19.397Z,99487.72
2023-01-11T18:26:27.072Z,99504.13
2023-01-11T18:29:38.358Z,99517.06
2023-01-11T18:32:44.245Z,99507.47
2023-01-11T18:35:49.159Z,99508.84
2023-01-11T18:38:51.634Z,99498.87
2023-01-11T18:42:09.750Z,99505.37
2023-01-11T18:45:12.556Z,99506.19
2023-01-11T18:48:15.578Z,99517.22
2023-01-11T18:51:29.502Z,99510.94
2023-01-11T18:54:31.938Z,99513.00
2023-01-11T18:57:34.181Z,99503.63
2023-01-11T19:00:37.114Z,99505.50
2023-01-11T19:03:39.507Z,99508.22
2023-01-11T19:06:41.857Z,99502.56
2023-01-11T19:09:47.684Z,99508.03
2023-01-11T19:12:50.285Z,99510.66
2023-01-11T19:15:52.538Z,99509.34
2023-01-11T19:18:54.977Z,99517.75
2023-01-11T19:21:57.455Z,99520.37
2023-01-11T19:24:59.622Z,99518.47
2023-01-11T19:28:03.104Z,99518.75
2023-01-11T19:31:11.314Z,99510.50
2023-01-11T19:34:14.196Z,99519.44
2023-01-11T19:37:16.643Z,99520.50
2023-01-11T19:40:21.589Z,99527.63
2023-01-11T19:43:23.982Z,99532.47
2023-01-11T19:46:31.962Z,99543.50
2023-01-11T19:49:34.628Z,99540.75
2023-01-11T19:52:36.797Z,99548.88
2023-01-11T19:55:39.396Z,99555.09
2023-01-11T19:58:41.607Z,99560.75
2023-01-11T20:01:45.199Z,99562.00
2023-01-11T20:04:47.913Z,99570.97
2023-01-11T20:07:50.454Z,99570.53
2023-01-11T20:10:53.668Z,99566.56
2023-01-11T20:13:55.826Z,99557.75
2023-01-11T20:16:58.070Z,99567.34
2023-01-11T20:20:00.324Z,99558.13
2023-01-11T20:23:02.502Z,99561.56
2023-01-11T20:26:07.371Z,99557.84
2023-01-11T20:29:09.601Z,99564.19
2023-01-11T20:32:35.014Z,99561.94
2023-01-11T20:35:34.403Z,99559.75
2023-01-11T20:38:36.593Z,99566.09
2023-01-11T20:41:48.503Z,99569.75
2023-01-11T20:44:50.866Z,99562.56
2023-01-11T20:47:53.047Z,99566.16
2023-01-11T20:50:59.696Z,99565.25
2023-01-11T20:54:02.439Z,99568.03
2023-01-11T20:57:08.207Z,99559.53
2023-01-11T21:03:12.263Z,99567.28
2023-01-11T21:06:15.671Z,99562.88
2023-01-11T21:09:18.513Z,99565.13
2023-01-11T21:12:20.702Z,99565.31
2023-01-11T21:15:22.931Z,99576.06
2023-01-11T21:18:25.100Z,99585.03
2023-01-11T21:21:28.748Z,99598.94
2023-01-11T21:24:30.976Z,99593.69
2023-01-11T21:27:33.152Z,99592.38
2023-01-11T21:30:35.343Z,99589.53
2023-01-11T21:33:39.257Z,99592.69
2023-01-11T21:36:42.899Z,99592.16
2023-01-11T21:39:45.122Z,99587.66
2023-01-11T21:42:47.332Z,99582.50
2023-01-11T21:45:55.795Z,99589.34
2023-01-11T21:48:57.997Z,99594.38
2023-01-11T21:52:00.381Z,99587.94
2023-01-11T21:55:02.588Z,99588.03
2023-01-11T21:58:04.802Z,99585.69
2023-01-11T22:01:11.317Z,99582.41
2023-01-11T22:04:17.659Z,99580.72
2023-01-11T22:07:19.842Z,99592.28
2023-01-11T22:10:22.090Z,99596.91
2023-01-11T22:13:24.865Z,99593.31
2023-01-11T22:16:27.138Z,99588.69
2023-01-11T22:19:29.386Z,99591.91
2023-01-11T22:22:31.545Z,99606.63
2023-01-11T22:25:35.933Z,99600.75
2023-01-11T22:28:58.371Z,99598.44
2023-01-11T22:32:01.967Z,99606.16
2023-01-11T22:35:04.403Z,99601.38
2023-01-11T22:38:06.753Z,99599.59
2023-01-11T22:41:09.423Z,99601.69
2023-01-11T22:44:11.804Z,99608.00
2023-01-11T22:47:13.955Z,99624.72
2023-01-11T22:50:16.360Z,99626.34
2023-01-11T22:53:18.571Z,99627.50
2023-01-11T22:56:24.912Z,99629.94
2023-01-11T22:59:27.601Z,99629.09
2023-01-11T23:02:29.831Z,99631.06
2023-01-11T23:05:32.148Z,99619.66
2023-01-11T23:08:41.982Z,99623.09
2023-01-11T23:12:03.284Z,99608.12
2023-01-11T23:15:05.892Z,99616.44
2023-01-11T23:18:09.911Z,99611.97
2023-01-11T23:21:12.114Z,99609.16
2023-01-11T23:24:15.774Z,99607.44
2023-01-11T23:27:18.014Z,99606.34
2023-01-11T23:30:20.295Z,99607.19
2023-01-11T23:33:22.474Z,99615.94
2023-01-11T23:36:29.284Z,99620.94
2023-01-11T23:39:32.808Z,99616.53
2023-01-11T23:42:35.529Z,99614.00
2023-01-11T23:45:58.095Z,99618.38
2023-01-11T23:49:00.310Z,99618.13
2023-01-11T23:52:02.518Z,99620.53
2023-01-11T23:55:05.195Z,99620.69
2023-01-11T23:58:10.433Z,99614.09
